createdAt,value
2023-09-03T00:02:24.508Z,26.74
2023-09-03T00:04:51.507Z,26.66
2023-09-03T00:07:18.540Z,26.68
2023-09-03T00:09:45.542Z,26.53
2023-09-03T00:12:13.000Z,26.47
2023-09-03T00:14:39.972Z,26.51
2023-09-03T00:17:07.002Z,26.56
2023-09-03T00:19:34.229Z,26.44
2023-09-03T00:22:02.890Z,26.55
2023-09-03T00:24:34.198Z,26.76
2023-09-03T00:27:01.439Z,26.65
2023-09-03T00:29:28.671Z,26.57
2023-09-03T00:31:56.861Z,26.71
2023-09-03T00:34:23.844Z,26.94
2023-09-03T00:36:50.898Z,26.52
2023-09-03T00:39:20.128Z,26.51
2023-09-03T00:41:47.505Z,26.60
2023-09-03T00:44:15.433Z,26.47
2023-09-03T00:46:43.980Z,26.42
2023-09-03T00:49:13.494Z,26.55
2023-09-03T00:51:41.000Z,26.30
2023-09-03T00:54:09.453Z,26.19
2023-09-03T00:56:36.946Z,26.25
2023-09-03T00:59:04.121Z,26.28
2023-09-03T01:01:31.816Z,26.22
2023-09-03T01:03:59.022Z,26.24
2023-09-03T01:06:26.453Z,26.19
2023-09-03T01:08:53.953Z,26.66
2023-09-03T01:11:48.281Z,26.58
2023-09-03T01:14:38.119Z,26.48
2023-09-03T01:17:36.214Z,26.43
2023-09-03T01:20:31.390Z,26.44
2023-09-03T01:23:10.326Z,26.54
2023-09-03T01:26:00.327Z,26.56
2023-09-03T01:28:39.964Z,26.43
2023-09-03T01:31:17.450Z,26.65
2023-09-03T01:33:46.925Z,26.80
2023-09-03T01:36:15.116Z,26.31
2023-09-03T01:38:42.388Z,26.19
2023-09-03T01:41:10.253Z,25.99
2023-09-03T01:43:37.466Z,25.97
2023-09-03T01:46:10.532Z,26.04
2023-09-03T01:48:56.704Z,26.34
2023-09-03T01:51:53.626Z,26.43
2023-09-03T01:54:32.263Z,26.17
2023-09-03T01:57:06.930Z,26.19
2023-09-03T01:59:44.682Z,26.10
2023-09-03T02:02:13.595Z,25.91
2023-09-03T02:04:40.992Z,25.98
2023-09-03T02:07:08.164Z,26.02
2023-09-03T02:09:35.714Z,26.10
2023-09-03T02:12:03.749Z,26.11
2023-09-03T02:14:30.738Z,25.97
2023-09-03T02:16:57.879Z,25.96
2023-09-03T02:19:25.219Z,26.02
2023-09-03T02:21:52.799Z,25.98
2023-09-03T02:24:20.112Z,25.97
2023-09-03T02:26:48.256Z,25.97
2023-09-03T02:29:15.657Z,25.75
2023-09-03T02:31:42.749Z,25.72
2023-09-03T02:34:15.151Z,25.76
2023-09-03T02:36:42.333Z,25.58
2023-09-03T02:39:10.138Z,25.56
2023-09-03T02:41:37.237Z,25.44
2023-09-03T02:44:04.408Z,25.57
2023-09-03T02:46:31.663Z,25.57
2023-09-03T02:49:00.043Z,25.54
2023-09-03T02:51:27.144Z,25.52
2023-09-03T02:53:56.105Z,25.52
2023-09-03T02:56:24.094Z,25.54
2023-09-03T02:58:52.158Z,25.42
2023-09-03T03:01:21.632Z,25.39
2023-09-03T03:03:49.532Z,25.23
2023-09-03T03:06:17.402Z,25.41
2023-09-03T03:08:45.059Z,25.54
2023-09-03T03:11:18.518Z,25.52
2023-09-03T03:14:03.513Z,25.81
2023-09-03T03:16:34.504Z,25.93
2023-09-03T03:19:06.327Z,25.89
2023-09-03T03:21:34.993Z,25.72
2023-09-03T03:24:07.017Z,25.69
2023-09-03T03:26:39.400Z,25.63
2023-09-03T03:29:10.711Z,25.58
2023-09-03T03:31:44.226Z,25.64
2023-09-03T03:34:12.740Z,25.74
2023-09-03T03:36:41.275Z,25.79
2023-09-03T03:39:08.225Z,25.61
2023-09-03T03:41:37.678Z,25.80
2023-09-03T03:44:05.829Z,25.18
2023-09-03T03:46:32.825Z,25.09
2023-09-03T03:49:01.097Z,25.26
2023-09-03T03:51:28.399Z,25.24
2023-09-03T03:53:56.503Z,25.21
2023-09-03T03:56:23.596Z,25.59
2023-09-03T03:58:51.119Z,25.34
2023-09-03T04:01:24.581Z,25.43
2023-09-03T04:03:55.908Z,25.34
2023-09-03T04:06:23.603Z,25.21
2023-09-03T04:08:50.604Z,25.30
2023-09-03T04:11:21.721Z,25.43
2023-09-03T04:13:48.857Z,25.29
2023-09-03T04:16:18.973Z,25.28
2023-09-03T04:18:50.207Z,25.03
2023-09-03T04:21:17.847Z,24.97
2023-09-03T04:23:45.271Z,25.09
2023-09-03T04:26:12.458Z,25.08
2023-09-03T04:28:44.663Z,25.11
2023-09-03T04:31:13.237Z,25.05
2023-09-03T04:33:41.660Z,25.18
2023-09-03T04:36:11.321Z,25.11
2023-09-03T04:38:38.567Z,25.14
2023-09-03T04:41:06.845Z,25.25
2023-09-03T04:43:48.288Z,25.10
2023-09-03T04:46:20.071Z,25.01
2023-09-03T04:48:47.265Z,24.98
2023-09-03T04:51:14.641Z,24.78
2023-09-03T04:53:42.493Z,24.84
2023-09-03T04:56:13.696Z,25.22
2023-09-03T04:58:42.404Z,24.98
2023-09-03T05:01:17.156Z,25.20
2023-09-03T05:03:47.016Z,24.95
2023-09-03T05:06:17.349Z,25.02
2023-09-03T05:08:46.672Z,24.93
2023-09-03T05:11:16.180Z,24.79
2023-09-03T05:13:45.153Z,24.29
2023-09-03T05:16:13.446Z,24.11
2023-09-03T05:18:42.665Z,24.49
2023-09-03T05:21:11.206Z,24.84
2023-09-03T05:23:39.132Z,24.87
2023-09-03T05:26:06.979Z,24.73
2023-09-03T05:28:36.579Z,24.50
2023-09-03T05:31:03.712Z,24.57
2023-09-03T05:33:32.102Z,24.74
2023-09-03T05:35:59.471Z,24.79
2023-09-03T05:38:26.604Z,24.79
2023-09-03T05:40:54.207Z,24.79
2023-09-03T05:43:24.230Z,24.68
2023-09-03T05:45:54.266Z,24.69
2023-09-03T05:48:21.748Z,24.83
2023-09-03T05:50:49.149Z,24.59
2023-09-03T05:53:16.854Z,24.57
2023-09-03T05:55:43.933Z,24.97
2023-09-03T05:58:11.013Z,24.99
2023-09-03T06:00:44.217Z,25.20
2023-09-03T06:03:12.199Z,25.04
2023-09-03T06:05:39.373Z,24.98
2023-09-03T06:08:07.553Z,25.28
2023-09-03T06:10:37.810Z,25.24
2023-09-03T06:13:05.065Z,25.35
2023-09-03T06:15:32.131Z,25.27
2023-09-03T06:18:00.775Z,25.19
2023-09-03T06:20:27.880Z,25.42
2023-09-03T06:22:54.871Z,25.28
2023-09-03T06:25:21.924Z,25.30
2023-09-03T06:27:48.891Z,25.28
2023-09-03T06:30:15.864Z,25.69
2023-09-03T06:32:43.313Z,25.63
2023-09-03T06:35:10.335Z,26.01
2023-09-03T06:37:37.342Z,26.01
2023-09-03T06:40:04.835Z,25.84
2023-09-03T06:42:31.896Z,25.79
2023-09-03T06:44:58.911Z,25.84
2023-09-03T06:47:26.057Z,26.01
2023-09-03T06:49:53.405Z,26.09
2023-09-03T06:52:21.013Z,26.03
2023-09-03T06:54:48.497Z,26.06
2023-09-03T06:57:28.364Z,26.17
2023-09-03T06:59:56.997Z,26.44
2023-09-03T07:02:25.147Z,26.61
2023-09-03T07:04:52.730Z,26.38
2023-09-03T07:07:19.760Z,26.42
2023-09-03T07:09:46.846Z,26.40
2023-09-03T07:12:14.290Z,26.52
2023-09-03T07:14:41.297Z,26.52
2023-09-03T07:17:08.269Z,26.45
2023-09-03T07:19:35.263Z,26.50
2023-09-03T07:22:02.323Z,26.46
2023-09-03T07:24:29.292Z,26.17
2023-09-03T07:26:56.343Z,25.82
2023-09-03T07:29:23.353Z,25.76
2023-09-03T07:31:50.396Z,26.14
2023-09-03T07:34:17.719Z,25.94
2023-09-03T07:36:44.716Z,26.35
2023-09-03T07:39:11.898Z,26.56
2023-09-03T07:41:39.930Z,26.82
2023-09-03T07:44:08.459Z,26.79
2023-09-03T07:46:35.937Z,26.92
2023-09-03T07:49:03.052Z,27.28
2023-09-03T07:51:30.407Z,26.94
2023-09-03T07:53:57.641Z,26.38
2023-09-03T07:56:24.801Z,26.11
2023-09-03T07:58:51.788Z,26.06
2023-09-03T08:01:20.686Z,26.63
2023-09-03T08:03:48.162Z,26.44
2023-09-03T08:06:15.379Z,26.31
2023-09-03T08:08:42.583Z,26.89
2023-09-03T08:11:09.539Z,26.97
2023-09-03T08:13:37.128Z,26.88
2023-09-03T08:16:04.396Z,26.65
2023-09-03T08:18:31.542Z,26.93
2023-09-03T08:20:59.187Z,26.57
2023-09-03T08:23:26.418Z,26.52
2023-09-03T08:25:53.402Z,26.79
2023-09-03T08:28:20.373Z,26.64
2023-09-03T08:30:48.413Z,26.91
2023-09-03T08:33:15.551Z,26.18
2023-09-03T08:35:42.696Z,26.38
2023-09-03T08:38:10.301Z,26.56
2023-09-03T08:40:37.888Z,27.13
2023-09-03T08:43:08.266Z,26.46
2023-09-03T08:45:42.968Z,26.54
2023-09-03T08:48:11.226Z,26.85
2023-09-03T08:50:38.355Z,27.19
2023-09-03T08:53:05.538Z,26.19
2023-09-03T08:55:33.898Z,26.34
2023-09-03T08:58:02.488Z,26.47
2023-09-03T09:00:30.009Z,26.92
2023-09-03T09:03:01.665Z,27.07
2023-09-03T09:05:28.949Z,26.96
2023-09-03T09:07:56.516Z,27.14
2023-09-03T09:10:29.629Z,27.52
2023-09-03T09:13:05.469Z,27.96
2023-09-03T09:15:32.693Z,27.58
2023-09-03T09:18:00.266Z,27.11
2023-09-03T09:20:27.336Z,27.49
2023-09-03T09:22:54.321Z,27.93
2023-09-03T09:25:28.219Z,27.92
2023-09-03T09:27:57.539Z,27.73
2023-09-03T09:30:26.677Z,28.29
2023-09-03T09:33:08.611Z,27.59
2023-09-03T09:35:36.347Z,27.58
2023-09-03T09:38:09.018Z,28.40
2023-09-03T09:40:37.618Z,28.14
2023-09-03T09:43:08.621Z,28.46
2023-09-03T09:45:51.723Z,28.49
2023-09-03T09:48:19.383Z,28.64
2023-09-03T09:50:48.967Z,28.59
2023-09-03T09:53:28.839Z,28.80
2023-09-03T09:56:10.901Z,28.35
2023-09-03T09:58:42.265Z,28.15
2023-09-03T10:01:10.391Z,27.82
2023-09-03T10:03:46.723Z,28.55
2023-09-03T10:06:19.291Z,28.60
2023-09-03T10:08:50.749Z,28.86
2023-09-03T10:11:20.441Z,28.35
2023-09-03T10:13:49.543Z,28.52
2023-09-03T10:16:21.002Z,27.94
2023-09-03T10:18:49.902Z,28.77
2023-09-03T10:21:36.842Z,28.42
2023-09-03T10:24:14.752Z,28.11
2023-09-03T10:26:50.496Z,28.11
2023-09-03T10:29:21.194Z,29.39
2023-09-03T10:31:51.278Z,29.11
2023-09-03T10:34:18.545Z,28.88
2023-09-03T10:37:05.684Z,29.07
2023-09-03T10:39:36.950Z,29.51
2023-09-03T10:42:18.732Z,30.13
2023-09-03T10:45:01.041Z,29.65
2023-09-03T10:47:28.864Z,29.74
2023-09-03T10:49:56.744Z,29.77
2023-09-03T10:52:31.926Z,29.37
2023-09-03T10:55:20.379Z,29.47
2023-09-03T10:58:17.212Z,29.38
2023-09-03T11:01:23.997Z,30.63
2023-09-03T11:03:55.927Z,31.22
2023-09-03T11:06:25.053Z,30.82
2023-09-03T11:09:07.759Z,30.62
2023-09-03T11:11:36.426Z,30.71
2023-09-03T11:14:04.212Z,29.99
2023-09-03T11:16:37.226Z,30.44
2023-09-03T11:19:08.370Z,30.57
2023-09-03T11:21:37.192Z,31.96
2023-09-03T11:24:07.025Z,33.11
2023-09-03T11:26:35.385Z,32.83
2023-09-03T11:29:03.877Z,32.51
2023-09-03T11:31:31.596Z,33.71
2023-09-03T11:33:59.231Z,32.54
2023-09-03T11:36:26.682Z,31.70
2023-09-03T11:38:56.411Z,32.55
2023-09-03T11:41:23.763Z,33.11
2023-09-03T11:43:50.949Z,32.94
2023-09-03T11:46:19.391Z,34.13
2023-09-03T11:48:57.196Z,34.43
2023-09-03T11:51:28.756Z,33.06
2023-09-03T11:53:57.846Z,32.38
2023-09-03T11:56:26.926Z,33.02
2023-09-03T11:58:59.067Z,34.10
2023-09-03T12:01:26.368Z,33.00
2023-09-03T12:03:54.023Z,33.58
2023-09-03T12:06:22.141Z,34.50
2023-09-03T12:08:49.614Z,34.15
2023-09-03T12:11:16.614Z,34.63
2023-09-03T12:13:45.466Z,34.60
2023-09-03T12:16:17.450Z,35.12
2023-09-03T12:19:00.239Z,36.11
2023-09-03T12:21:37.899Z,38.88
2023-09-03T12:24:09.095Z,39.21
2023-09-03T12:26:38.095Z,37.48
2023-09-03T12:29:19.782Z,37.15
2023-09-03T12:31:46.894Z,37.84
2023-09-03T12:34:18.975Z,36.77
2023-09-03T12:36:58.006Z,36.77
2023-09-03T12:39:32.548Z,36.27
2023-09-03T12:42:00.841Z,38.26
2023-09-03T12:44:28.197Z,37.83
2023-09-03T12:46:56.390Z,37.52
2023-09-03T12:49:23.782Z,37.08
2023-09-03T12:51:50.882Z,37.74
2023-09-03T12:54:17.888Z,36.66
2023-09-03T12:56:45.051Z,36.13
2023-09-03T12:59:12.110Z,32.55
2023-09-03T13:01:40.978Z,32.17
2023-09-03T13:04:15.536Z,35.87
2023-09-03T13:06:43.145Z,37.23
2023-09-03T13:09:11.297Z,35.42
2023-09-03T13:11:38.809Z,34.93
2023-09-03T13:14:06.420Z,34.36
2023-09-03T13:16:34.247Z,36.13
2023-09-03T13:19:01.861Z,38.14
2023-09-03T13:21:29.149Z,37.26
2023-09-03T13:23:56.294Z,35.62
2023-09-03T13:26:23.238Z,37.32
2023-09-03T13:28:50.230Z,38.13
2023-09-03T13:31:22.636Z,36.02
2023-09-03T13:33:49.745Z,36.69
2023-09-03T13:36:18.332Z,35.39
2023-09-03T13:38:46.376Z,35.66
2023-09-03T13:41:13.490Z,36.05
2023-09-03T13:43:43.164Z,35.66
2023-09-03T13:46:10.464Z,32.13
2023-09-03T13:48:37.877Z,33.50
2023-09-03T13:51:12.519Z,34.06
2023-09-03T13:53:40.454Z,33.25
2023-09-03T13:56:08.476Z,32.79
2023-09-03T13:58:36.287Z,32.97
2023-09-03T14:01:10.476Z,33.73
2023-09-03T14:03:38.487Z,33.49
2023-09-03T14:06:09.107Z,32.74
2023-09-03T14:08:37.521Z,32.67
2023-09-03T14:11:04.732Z,32.71
2023-09-03T14:13:32.420Z,33.06
2023-09-03T14:16:00.224Z,33.57
2023-09-03T14:18:28.884Z,33.42
2023-09-03T14:20:56.186Z,32.74
2023-09-03T14:23:24.914Z,31.53
2023-09-03T14:25:52.355Z,31.57
2023-09-03T14:28:19.486Z,32.12
2023-09-03T14:30:47.078Z,32.59
2023-09-03T14:33:14.081Z,33.06
2023-09-03T14:35:41.122Z,33.26
2023-09-03T14:38:09.001Z,32.81
2023-09-03T14:40:36.728Z,32.84
2023-09-03T14:43:04.130Z,32.86
2023-09-03T14:45:32.140Z,33.17
2023-09-03T14:47:59.680Z,32.31
2023-09-03T14:50:26.659Z,32.07
2023-09-03T14:52:53.648Z,32.54
2023-09-03T14:55:23.903Z,32.58
2023-09-03T14:57:53.881Z,32.23
2023-09-03T15:00:21.401Z,32.70
2023-09-03T15:02:48.407Z,32.42
2023-09-03T15:05:15.506Z,31.65
2023-09-03T15:07:42.490Z,31.56
2023-09-03T15:10:09.830Z,31.66
2023-09-03T15:12:36.845Z,31.78
2023-09-03T15:15:05.188Z,32.22
2023-09-03T15:17:32.540Z,31.82
2023-09-03T15:20:00.831Z,32.12
2023-09-03T15:22:28.208Z,31.80
2023-09-03T15:24:55.231Z,32.11
2023-09-03T15:27:22.181Z,31.78
2023-09-03T15:29:49.163Z,32.01
2023-09-03T15:32:16.157Z,31.79
2023-09-03T15:34:43.677Z,31.86
2023-09-03T15:37:10.687Z,30.85
2023-09-03T15:39:38.620Z,31.07
2023-09-03T15:42:05.758Z,31.43
2023-09-03T15:44:32.826Z,31.64
2023-09-03T15:46:59.863Z,31.27
2023-09-03T15:49:27.015Z,31.60
2023-09-03T15:51:54.090Z,31.68
2023-09-03T15:54:25.469Z,31.66
2023-09-03T15:56:53.792Z,32.03
2023-09-03T15:59:24.173Z,31.86
2023-09-03T16:01:54.373Z,30.78
2023-09-03T16:04:22.101Z,30.60
2023-09-03T16:06:49.088Z,30.43
2023-09-03T16:09:16.207Z,31.01
2023-09-03T16:11:43.285Z,30.62
2023-09-03T16:14:10.389Z,30.70
2023-09-03T16:16:37.403Z,30.63
2023-09-03T16:19:04.455Z,31.13
2023-09-03T16:21:33.447Z,30.59
2023-09-03T16:24:00.496Z,31.38
2023-09-03T16:26:27.500Z,31.04
2023-09-03T16:28:54.544Z,31.34
2023-09-03T16:31:21.750Z,31.06
2023-09-03T16:33:49.209Z,31.40
2023-09-03T16:36:16.432Z,31.02
2023-09-03T16:38:43.450Z,31.61
2023-09-03T16:41:10.504Z,31.82
2023-09-03T16:43:40.416Z,31.88
2023-09-03T16:46:10.152Z,31.73
2023-09-03T16:48:37.171Z,31.64
2023-09-03T16:51:04.162Z,32.01
2023-09-03T16:53:31.133Z,32.15
2023-09-03T16:55:58.241Z,31.91
2023-09-03T16:58:25.280Z,31.86
2023-09-03T17:00:52.969Z,31.81
2023-09-03T17:03:20.875Z,31.63
2023-09-03T17:05:48.369Z,31.13
2023-09-03T17:08:15.416Z,30.97
2023-09-03T17:10:42.445Z,30.73
2023-09-03T17:13:09.507Z,31.35
2023-09-03T17:15:43.112Z,31.79
2023-09-03T17:18:10.704Z,31.67
2023-09-03T17:20:43.904Z,32.53
2023-09-03T17:23:12.228Z,32.71
2023-09-03T17:25:39.321Z,32.22
2023-09-03T17:28:07.086Z,32.48
2023-09-03T17:30:34.458Z,32.42
2023-09-03T17:33:01.496Z,32.39
2023-09-03T17:35:28.528Z,32.32
2023-09-03T17:37:55.504Z,32.32
2023-09-03T17:40:22.567Z,32.14
2023-09-03T17:42:49.516Z,32.12
2023-09-03T17:45:16.531Z,31.91
2023-09-03T17:47:43.987Z,32.00
2023-09-03T17:50:11.312Z,31.70
2023-09-03T17:52:38.412Z,31.54
2023-09-03T17:55:06.114Z,31.60
2023-09-03T17:57:34.905Z,31.46
2023-09-03T18:00:03.939Z,31.17
2023-09-03T18:02:39.999Z,31.18
2023-09-03T18:05:07.614Z,31.15
2023-09-03T18:07:34.841Z,31.06
2023-09-03T18:10:02.084Z,30.93
2023-09-03T18:12:30.420Z,31.00
2023-09-03T18:21:18.898Z,30.77
2023-09-03T18:23:46.539Z,30.84
2023-09-03T18:26:13.688Z,30.84
2023-09-03T18:28:45.051Z,31.05
2023-09-03T18:31:14.346Z,30.59
2023-09-03T18:33:41.608Z,30.46
2023-09-03T18:36:08.828Z,30.35
2023-09-03T18:38:36.088Z,30.34
2023-09-03T18:41:03.556Z,30.23
2023-09-03T18:43:30.540Z,30.20
2023-09-03T18:46:00.902Z,30.34
2023-09-03T18:54:20.914Z,30.28
2023-09-03T18:56:48.724Z,30.30
2023-09-03T18:59:17.699Z,30.12
2023-09-03T19:01:44.870Z,29.85
2023-09-03T19:04:14.439Z,29.80
2023-09-03T19:06:41.452Z,29.75
2023-09-03T19:09:08.452Z,29.69
2023-09-03T19:11:35.610Z,29.63
2023-09-03T19:14:04.093Z,29.77
2023-09-03T19:16:31.768Z,29.60
2023-09-03T19:18:59.206Z,29.70
2023-09-03T19:21:27.168Z,29.56
2023-09-03T19:23:54.125Z,29.34
2023-09-03T19:26:21.192Z,29.38
2023-09-03T19:28:49.851Z,29.40
2023-09-03T19:31:17.077Z,29.42
2023-09-03T19:33:44.411Z,29.33
2023-09-03T19:36:12.390Z,29.33
2023-09-03T19:38:39.859Z,29.30
2023-09-03T19:41:07.126Z,29.22
2023-09-03T19:43:34.806Z,29.29
2023-09-03T19:46:02.660Z,29.24
2023-09-03T19:48:35.237Z,29.28
2023-09-03T19:51:02.992Z,29.31
2023-09-03T19:53:31.991Z,29.38
2023-09-03T19:56:06.897Z,29.49
2023-09-03T19:58:34.601Z,29.09
2023-09-03T20:01:06.315Z,29.29
2023-09-03T20:03:34.265Z,29.55
2023-09-03T20:06:04.586Z,29.03
2023-09-03T20:08:32.524Z,29.17
2023-09-03T20:11:04.593Z,29.37
2023-09-03T20:13:32.751Z,29.32
2023-09-03T20:16:01.682Z,29.11
2023-09-03T20:18:29.437Z,29.19
2023-09-03T20:20:59.169Z,29.38
2023-09-03T20:23:26.398Z,29.18
2023-09-03T20:26:06.103Z,29.26
2023-09-03T20:28:45.780Z,29.23
2023-09-03T20:31:15.865Z,29.02
2023-09-03T20:33:43.906Z,28.85
2023-09-03T20:36:11.385Z,28.80
2023-09-03T20:38:38.768Z,28.63
2023-09-03T20:41:05.882Z,28.53
2023-09-03T20:43:33.257Z,28.66
2023-09-03T20:46:01.016Z,28.53
2023-09-03T20:48:29.362Z,28.59
2023-09-03T20:51:01.189Z,28.66
2023-09-03T20:53:28.276Z,28.50
2023-09-03T20:55:56.464Z,28.53
2023-09-03T20:58:24.748Z,28.48
2023-09-03T21:00:52.886Z,28.44
2023-09-03T21:09:39.361Z,28.33
2023-09-03T21:12:06.803Z,28.34
2023-09-03T21:14:34.127Z,28.21
2023-09-03T21:17:01.350Z,28.27
2023-09-03T21:19:28.508Z,28.30
2023-09-03T21:21:56.015Z,28.25
2023-09-03T21:24:23.285Z,28.22
2023-09-03T21:26:50.478Z,28.31
2023-09-03T21:29:20.207Z,28.36
2023-09-03T21:31:47.322Z,28.33
2023-09-03T21:34:14.653Z,28.29
2023-09-03T21:36:41.835Z,28.13
2023-09-03T21:42:18.615Z,28.19
2023-09-03T21:44:45.711Z,28.17
2023-09-03T21:47:13.167Z,28.21
2023-09-03T21:49:41.344Z,28.17
2023-09-03T21:52:08.413Z,28.02
2023-09-03T21:54:51.241Z,28.04
2023-09-03T21:57:23.003Z,28.01
2023-09-03T21:59:50.044Z,28.01
2023-09-03T22:02:17.381Z,28.01
2023-09-03T22:04:44.963Z,27.92
2023-09-03T22:07:12.062Z,27.82
2023-09-03T22:12:28.361Z,27.76
2023-09-03T22:14:55.954Z,27.90
2023-09-03T22:17:25.549Z,27.77
2023-09-03T22:19:52.733Z,27.74
2023-09-03T22:22:22.287Z,27.72
2023-09-03T22:24:49.576Z,27.69
2023-09-03T22:27:16.678Z,27.58
2023-09-03T22:29:44.561Z,27.53
2023-09-03T22:32:11.667Z,27.50
2023-09-03T22:34:39.029Z,27.39
2023-09-03T22:37:06.609Z,27.45
2023-09-03T22:39:35.152Z,27.38
2023-09-03T22:42:02.985Z,27.17
2023-09-03T22:44:30.331Z,27.11
2023-09-03T22:46:58.051Z,27.16
2023-09-03T22:49:25.408Z,27.13
2023-09-03T22:51:52.770Z,27.06
2023-09-03T22:54:20.471Z,27.08
2023-09-03T22:56:47.688Z,26.89
2023-09-03T22:59:14.869Z,26.75
2023-09-03T23:01:42.166Z,26.88
2023-09-03T23:04:09.642Z,26.98
2023-09-03T23:06:36.714Z,26.95
2023-09-03T23:09:03.821Z,27.03
2023-09-03T23:11:31.798Z,27.02
2023-09-03T23:13:58.789Z,26.88
2023-09-03T23:16:25.825Z,26.88
2023-09-03T23:18:52.865Z,27.00
2023-09-03T23:21:20.158Z,26.85
2023-09-03T23:23:47.173Z,26.83
2023-09-03T23:26:16.870Z,26.83
2023-09-03T23:28:43.903Z,26.79
2023-09-03T23:31:11.015Z,26.74
2023-09-03T23:33:38.102Z,26.80
2023-09-03T23:36:05.406Z,26.75
2023-09-03T23:38:33.833Z,26.90
2023-09-03T23:41:00.895Z,26.54
2023-09-03T23:43:27.852Z,26.68
2023-09-03T23:45:54.831Z,26.63
2023-09-03T23:48:22.225Z,26.57
2023-09-03T23:50:49.538Z,26.60
2023-09-03T23:53:16.501Z,26.75
2023-09-03T23:55:43.527Z,26.40
2023-09-03T23:58:10.642Z,26.61
